Time;durP1;ratioP1;P1;durP2;ratioP2;P2;SDS_P1;SDS_P2;PMS_P1;PMS_P2;Temp;Humidity;BMP_temperature;BMP_pressure;BME280_temperature;BME280_humidity;BME280_pressure;Samples;Min_cycle;Max_cycle;Signal;HPM_P1;HPM_P2
2021/01/30 00:00:28;;;;;;;1.50;0.47;;;;;;;;;;5053228;28;20579;-75
2021/01/30 00:02:55;;;;;;;2.87;0.60;;;;;;;;;;5052278;28;20209;-75
2021/01/30 00:05:21;;;;;;;3.00;0.70;;;;;;;;;;5053049;28;20177;-75
2021/01/30 00:07:48;;;;;;;1.70;0.67;;;;;;;;;;5047744;28;20178;-75
2021/01/30 00:10:15;;;;;;;1.30;0.50;;;;;;;;;;5048344;28;20599;-76
2021/01/30 00:12:41;;;;;;;2.30;0.53;;;;;;;;;;5052478;28;20205;-75
2021/01/30 00:15:08;;;;;;;1.53;0.73;;;;;;;;;;5051535;28;20189;-76
2021/01/30 00:17:34;;;;;;;2.37;0.67;;;;;;;;;;5051518;28;20236;-75
2021/01/30 00:20:00;;;;;;;2.77;0.43;;;;;;;;;;5052719;28;20186;-75
2021/01/30 00:22:26;;;;;;;2.43;0.80;;;;;;;;;;5050827;28;20205;-76
2021/01/30 00:24:52;;;;;;;3.20;0.60;;;;;;;;;;5052643;28;20181;-75
2021/01/30 00:27:20;;;;;;;2.20;0.53;;;;;;;;;;5052913;28;20223;-75
2021/01/30 00:29:46;;;;;;;2.03;0.60;;;;;;;;;;5052572;28;20581;-75
2021/01/30 00:32:13;;;;;;;3.00;0.67;;;;;;;;;;5052760;28;20206;-75
2021/01/30 00:34:39;;;;;;;2.13;0.63;;;;;;;;;;5052140;28;20186;-75
2021/01/30 00:37:10;;;;;;;1.30;0.60;;;;;;;;;;5052613;28;20190;-75
2021/01/30 00:39:36;;;;;;;0.87;0.50;;;;;;;;;;5052507;28;20223;-76
2021/01/30 00:42:03;;;;;;;3.80;1.10;;;;;;;;;;5052356;28;20712;-75
2021/01/30 00:44:29;;;;;;;1.60;0.77;;;;;;;;;;5054188;28;20182;-73
2021/01/30 00:46:57;;;;;;;2.50;0.60;;;;;;;;;;5054947;28;20178;-76
2021/01/30 00:49:23;;;;;;;6.80;1.20;;;;;;;;;;5054998;28;20181;-75
2021/01/30 00:51:49;;;;;;;2.97;0.67;;;;;;;;;;5054679;28;20237;-75
2021/01/30 00:54:15;;;;;;;4.00;0.70;;;;;;;;;;5055955;28;20548;-75
2021/01/30 00:56:41;;;;;;;1.80;0.60;;;;;;;;;;5055950;28;20671;-75
2021/01/30 00:59:08;;;;;;;1.40;0.73;;;;;;;;;;5056034;28;20185;-75
2021/01/30 01:01:38;;;;;;;1.47;0.87;;;;;;;;;;5054374;28;20186;-75
2021/01/30 01:04:05;;;;;;;2.67;1.00;;;;;;;;;;5055897;28;20529;-75
2021/01/30 01:06:32;;;;;;;2.40;0.60;;;;;;;;;;5055959;28;20201;-75
2021/01/30 01:08:58;;;;;;;2.93;0.50;;;;;;;;;;5049442;28;20167;-75
2021/01/30 01:11:24;;;;;;;3.33;0.87;;;;;;;;;;5055866;28;20203;-74
2021/01/30 01:13:51;;;;;;;3.53;0.70;;;;;;;;;;5055559;28;20190;-75
2021/01/30 01:16:17;;;;;;;3.57;0.80;;;;;;;;;;5054384;28;20182;-75
2021/01/30 01:18:44;;;;;;;2.93;0.83;;;;;;;;;;5055545;28;20269;-75
2021/01/30 01:21:10;;;;;;;3.07;0.70;;;;;;;;;;5054211;28;20184;-74
2021/01/30 01:23:36;;;;;;;5.30;1.37;;;;;;;;;;5055025;28;20297;-74
2021/01/30 01:26:02;;;;;;;3.53;1.00;;;;;;;;;;5055710;28;20202;-75
2021/01/30 01:28:28;;;;;;;4.40;1.20;;;;;;;;;;5055370;28;20171;-74
2021/01/30 01:30:54;;;;;;;5.97;1.10;;;;;;;;;;5055332;28;20181;-76
2021/01/30 01:33:20;;;;;;;7.47;1.53;;;;;;;;;;5055193;28;20202;-75
2021/01/30 01:35:46;;;;;;;6.37;1.37;;;;;;;;;;5055317;28;20189;-75
2021/01/30 01:38:12;;;;;;;4.20;1.43;;;;;;;;;;5055258;28;20177;-75
2021/01/30 01:40:40;;;;;;;4.83;1.40;;;;;;;;;;5053729;28;20583;-76
2021/01/30 01:43:08;;;;;;;4.47;1.60;;;;;;;;;;5053284;28;20201;-75
2021/01/30 01:45:33;;;;;;;6.37;1.10;;;6.40;99.90;;;;;;5055144;28;20182;-75
2021/01/30 01:48:07;;;;;;;4.63;1.40;;;6.40;99.90;;;;;;5055241;28;20188;-75
2021/01/30 01:50:49;;;;;;;7.60;1.40;;;6.40;99.90;;;;;;5053875;28;20174;-75
2021/01/30 01:53:21;;;;;;;5.93;1.40;;;;;;;;;;5054463;28;20194;-75
2021/01/30 01:55:52;;;;;;;6.37;1.40;;;;;;;;;;5054210;28;20535;-75
2021/01/30 01:58:20;;;;;;;4.67;1.13;;;;;;;;;;5054836;28;20644;-75
2021/01/30 02:00:49;;;;;;;5.00;1.27;;;;;;;;;;5054804;28;20186;-75
2021/01/30 02:03:17;;;;;;;5.33;1.13;;;;;;;;;;5054049;28;20235;-75
2021/01/30 02:05:43;;;;;;;5.77;1.53;;;;;;;;;;5053517;28;20272;-75
2021/01/30 02:08:10;;;;;;;5.83;1.63;;;;;;;;;;5046426;28;20263;-75
2021/01/30 02:10:41;;;;;;;10.73;1.87;;;;;;;;;;5054378;28;20656;-75
2021/01/30 02:13:10;;;;;;;4.77;1.40;;;;;;;;;;5054161;28;20202;-75
2021/01/30 02:15:36;;;;;;;9.37;1.23;;;;;;;;;;5054415;28;20260;-76
2021/01/30 02:18:18;;;;;;;7.23;1.60;;;;;;;;;;5054663;28;20271;-75
2021/01/30 02:21:03;;;;;;;6.30;2.10;;;;;;;;;;5054331;28;20190;-76
2021/01/30 02:23:29;;;;;;;5.53;1.50;;;;;;;;;;5054018;28;20221;-75
2021/01/30 02:26:13;;;;;;;6.97;1.67;;;;;;;;;;5054259;28;20205;-75
2021/01/30 02:28:45;;;;;;;7.73;1.87;;;;;;;;;;5054234;28;20177;-75
2021/01/30 02:31:15;;;;;;;6.67;1.27;;;;;;;;;;5054509;28;20174;-75
2021/01/30 02:33:41;;;;;;;9.13;1.33;;;;;;;;;;5053734;28;20223;-75
2021/01/30 02:36:23;;;;;;;10.00;1.50;;;;;;;;;;5054314;28;20189;-75
2021/01/30 02:39:12;;;;;;;7.93;1.67;;;;;;;;;;5054103;28;20588;-75
2021/01/30 02:41:40;;;;;;;7.80;1.77;;;;;;;;;;5048226;28;20182;-75
2021/01/30 02:44:08;;;;;;;7.20;1.60;;;;;;;;;;5053611;28;20312;-75
2021/01/30 02:46:36;;;;;;;13.17;1.77;;;;;;;;;;5053879;28;20251;-75
2021/01/30 02:49:06;;;;;;;7.07;1.43;;;;;;;;;;5054288;28;20186;-76
2021/01/30 02:51:36;;;;;;;9.23;1.80;;;;;;;;;;5042653;28;20718;-75
2021/01/30 02:54:03;;;;;;;11.20;2.23;;;;;;;;;;5034371;28;20191;-76
2021/01/30 02:56:29;;;;;;;8.17;2.07;;;;;;;;;;5047247;28;20603;-73
2021/01/30 02:58:59;;;;;;;8.43;1.57;;;;;;;;;;5050842;28;20182;-75
2021/01/30 03:01:26;;;;;;;6.87;1.60;;;;;;;;;;5053581;28;20189;-74
2021/01/30 03:03:56;;;;;;;8.13;2.00;;;;;;;;;;5053243;28;20253;-75
2021/01/30 03:06:42;;;;;;;8.70;1.60;;;;;;;;;;5039597;28;20261;-75
2021/01/30 03:09:14;;;;;;;8.13;1.17;;;;;;;;;;5030288;28;20233;-75
2021/01/30 03:11:44;;;;;;;4.33;1.43;;;;;;;;;;5052367;28;20198;-75
2021/01/30 03:14:16;;;;;;;11.63;2.00;;;;;;;;;;5047164;28;20262;-75
2021/01/30 03:16:43;;;;;;;4.67;1.33;;;;;;;;;;5055947;28;20178;-75
2021/01/30 03:19:12;;;;;;;5.10;1.60;;;;;;;;;;5054637;28;20220;-75
2021/01/30 03:21:39;;;;;;;7.90;1.87;;;;;;;;;;5053473;28;20177;-76
2021/01/30 03:24:06;;;;;;;5.00;1.50;;;;;;;;;;5053104;28;20182;-75
2021/01/30 03:26:33;;;;;;;3.73;1.10;;;;;;;;;;5053424;28;20181;-75
2021/01/30 03:29:00;;;;;;;3.70;0.73;;;;;;;;;;5053599;28;20251;-75
2021/01/30 03:31:26;;;;;;;3.37;0.90;;;;;;;;;;5053152;28;20173;-75
2021/01/30 03:33:52;;;;;;;3.20;0.70;;;;;;;;;;5050757;28;20202;-75
2021/01/30 03:36:18;;;;;;;2.00;0.80;;;;;;;;;;5050646;28;20636;-75
2021/01/30 03:38:44;;;;;;;2.13;0.63;;;;;;;;;;5053155;28;20346;-75
2021/01/30 03:41:10;;;;;;;4.73;1.23;;;;;;;;;;5053297;28;20525;-75
2021/01/30 03:43:36;;;;;;;3.50;0.73;;;;;;;;;;5052940;28;20239;-75
2021/01/30 03:46:03;;;;;;;5.63;1.00;;;;;;;;;;5053002;28;20182;-75
2021/01/30 03:48:29;;;;;;;3.60;0.83;;;;;;;;;;5052931;28;20197;-74
2021/01/30 03:50:55;;;;;;;3.63;0.80;;;;;;;;;;5052957;28;20178;-76
2021/01/30 03:53:21;;;;;;;3.27;0.67;;;;;;;;;;5051256;28;20569;-75
2021/01/30 03:55:48;;;;;;;6.67;0.80;;;;;;;;;;5052948;28;20216;-75
2021/01/30 03:58:14;;;;;;;2.27;0.80;;;;;;;;;;5052765;28;20189;-75
2021/01/30 04:00:40;;;;;;;5.43;1.47;;;;;;;;;;5052983;28;20648;-75
2021/01/30 04:03:06;;;;;;;4.37;1.17;;;;;;;;;;5052369;28;20217;-74
2021/01/30 04:05:33;;;;;;;3.70;0.77;;;;;;;;;;5053154;28;20544;-75
2021/01/30 04:08:00;;;;;;;5.33;1.10;;;;;;;;;;5045938;28;20174;-75
2021/01/30 04:10:28;;;;;;;4.57;1.20;;;;;;;;;;5049982;28;20173;-75
2021/01/30 04:12:55;;;;;;;6.73;1.47;;;;;;;;;;5052502;28;20201;-75
2021/01/30 04:15:22;;;;;;;6.97;1.57;;;;;;;;;;5052817;28;20216;-75
2021/01/30 04:17:48;;;;;;;4.10;1.00;;;;;;;;;;5052773;28;20232;-75
2021/01/30 04:20:15;;;;;;;9.67;1.53;;;;;;;;;;5054937;28;20208;-75
2021/01/30 04:22:41;;;;;;;5.63;1.33;;;;;;;;;;5056160;28;20210;-75
2021/01/30 04:25:08;;;;;;;2.77;0.97;;;;;;;;;;5056790;28;20581;-74
2021/01/30 04:27:34;;;;;;;5.90;1.30;;;;;;;;;;5055241;28;20212;-75
2021/01/30 04:30:00;;;;;;;4.20;1.27;;;;;;;;;;5057083;28;20232;-75
2021/01/30 04:32:26;;;;;;;4.13;1.10;;;;;;;;;;5055083;28;20209;-75
2021/01/30 04:34:52;;;;;;;5.33;1.03;;;;;;;;;;5055237;28;20261;-75
2021/01/30 04:37:18;;;;;;;8.47;1.33;;;;;;;;;;5056366;28;20645;-75
2021/01/30 04:39:44;;;;;;;6.47;1.33;;;;;;;;;;5056259;28;20178;-75
2021/01/30 04:42:17;;;;;;;5.40;1.30;;;;;;;;;;5055793;28;20681;-75
2021/01/30 04:44:58;;;;;;;4.07;1.37;;;;;;;;;;5056506;28;20235;-75
2021/01/30 04:47:24;;;;;;;5.07;1.20;;;;;;;;;;5054920;28;20276;-75
2021/01/30 04:50:01;;;;;;;7.67;1.30;;;;;;;;;;5054856;28;20228;-75
2021/01/30 04:52:38;;;;;;;5.53;1.40;;;;;;;;;;5055987;28;20225;-75
2021/01/30 04:55:15;;;;;;;6.80;1.30;;;;;;;;;;5054696;28;20598;-75
2021/01/30 04:58:13;;;;;;;3.27;1.20;;;;;;;;;;5056445;28;20197;-75
2021/01/30 05:00:47;;;;;;;2.70;1.20;;;;;;;;;;5016453;28;20190;-76
2021/01/30 05:03:23;;;;;;;5.07;1.67;;;;;;;;;;5033342;28;20298;-74
2021/01/30 05:05:51;;;;;;;9.27;1.80;;;;;;;;;;5039284;28;20197;-75
2021/01/30 05:08:17;;;;;;;7.53;1.23;;;;;;;;;;5050616;22;20580;-77
2021/01/30 05:10:52;;;;;;;5.80;1.80;;;;;;;;;;5034081;28;20178;-76
2021/01/30 05:13:28;;;;;;;6.23;1.60;;;;;;;;;;5038201;28;20175;-76
2021/01/30 05:15:56;;;;;;;6.00;1.57;;;;;;;;;;5022497;28;20174;-76
2021/01/30 05:18:34;;;;;;;2.57;1.00;;;;;;;;;;5035627;28;20198;-74
2021/01/30 05:21:03;;;;;;;3.87;1.20;;;;;;;;;;5037756;28;20213;-76
2021/01/30 05:23:31;;;;;;;6.90;1.47;;;;;;;;;;5035386;28;20194;-76
2021/01/30 05:25:59;;;;;;;3.97;1.10;;;;;;;;;;5035661;28;20171;-77
2021/01/30 05:28:34;;;;;;;6.47;1.43;;;;;;;;;;5035304;28;20217;-76
2021/01/30 05:31:06;;;;;;;5.10;1.53;;;;;;;;;;5035408;28;20620;-76
2021/01/30 05:33:32;;;;;;;5.63;1.43;;;;;;;;;;5033709;28;20174;-76
2021/01/30 05:36:08;;;;;;;8.33;1.93;;;;;;;;;;5035531;28;20186;-77
2021/01/30 05:38:40;;;;;;;6.87;2.07;;;;;;;;;;5035413;28;20194;-76
2021/01/30 05:41:39;;;;;;;4.23;1.20;;;;;;;;;;5035317;28;20178;-77
2021/01/30 05:44:11;;;;;;;8.70;1.87;;;;;;;;;;5004677;28;20304;-76
2021/01/30 05:46:39;;;;;;;4.00;1.33;;;;;;;;;;5034890;28;20564;-75
2021/01/30 05:49:10;;;;;;;7.93;1.67;;;;;;;;;;5035299;28;20265;-75
2021/01/30 05:51:51;;;;;;;5.47;1.10;;;;;;;;;;5035808;28;20590;-76
2021/01/30 05:54:18;;;;;;;5.20;1.37;;;;;;;;;;5035256;28;20174;-76
2021/01/30 05:56:45;;;;;;;5.57;1.73;;;;;;;;;;5035068;28;20549;-76
2021/01/30 05:59:14;;;;;;;7.77;1.83;;;;;;;;;;5035150;28;20205;-76
2021/01/30 06:01:40;;;;;;;6.13;1.43;;;;;;;;;;5034606;28;20171;-76
2021/01/30 06:04:08;;;;;;;5.37;1.30;;;;;;;;;;5034695;28;20183;-76
2021/01/30 06:06:38;;;;;;;6.10;1.53;;;;;;;;;;5034875;28;20174;-77
2021/01/30 06:09:12;;;;;;;4.60;1.80;;;;;;;;;;5034706;28;20167;-76
2021/01/30 06:11:46;;;;;;;5.70;1.40;;;;;;;;;;5034578;28;20178;-76
2021/01/30 06:14:26;;;;;;;5.57;0.90;;;;;;;;;;5034786;28;20171;-76
2021/01/30 06:16:59;;;;;;;5.10;1.60;;;;;;;;;;5034745;28;20273;-75
2021/01/30 06:19:25;;;;;;;5.43;1.57;;;;;;;;;;5034601;28;20162;-76
2021/01/30 06:22:09;;;;;;;7.03;1.13;;;;;;;;;;5032713;28;20177;-76
2021/01/30 06:24:36;;;;;;;2.80;1.00;;;;;;;;;;5034381;28;20181;-76
2021/01/30 06:27:09;;;;;;;5.70;1.27;;;;;;;;;;5034287;28;20194;-76
2021/01/30 06:29:36;;;;;;;5.77;1.07;;;;;;;;;;5032983;28;20171;-76
2021/01/30 06:32:21;;;;;;;6.07;1.27;;;;;;;;;;5034247;28;20175;-76
2021/01/30 06:34:49;;;;;;;5.57;1.33;;;;;;;;;;5032863;28;20179;-75
2021/01/30 06:37:26;;;;;;;8.10;1.43;;;;;;;;;;5034326;28;20206;-76
2021/01/30 06:40:02;;;;;;;6.67;1.33;;;;;;;;;;5034069;28;20226;-76
2021/01/30 06:42:31;;;;;;;7.87;1.30;;;;;;;;;;5033246;28;20201;-76
2021/01/30 06:45:02;;;;;;;5.73;1.20;;;;;;;;;;5034287;28;20189;-76
2021/01/30 06:47:28;;;;;;;13.00;1.50;;;;;;;;;;5034108;28;20202;-76
2021/01/30 06:49:57;;;;;;;7.47;1.60;;;;;;;;;;5034138;28;20162;-76
2021/01/30 06:52:26;;;;;;;4.43;0.97;;;;;;;;;;5033438;28;20705;-76
2021/01/30 06:55:04;;;;;;;4.20;1.23;;;;;;;;;;5034017;28;20178;-76
2021/01/30 06:57:31;;;;;;;4.77;1.43;;;;;;;;;;5033730;28;20670;-76
2021/01/30 07:00:01;;;;;;;6.93;1.37;;;;;;;;;;5033959;28;20221;-77
2021/01/30 07:02:36;;;;;;;7.80;1.40;;;;;;;;;;5033373;28;20201;-76
2021/01/30 07:05:34;;;;;;;6.87;1.40;;;;;;;;;;5032199;28;20190;-77
2021/01/30 07:08:18;;;;;;;5.70;1.50;;;;;;;;;;5000023;28;20222;-77
2021/01/30 07:10:50;;;;;;;6.33;1.43;;;;;;;;;;5042608;28;20168;-76
2021/01/30 07:13:16;;;;;;;7.43;1.80;;;;;;;;;;5026602;28;20179;-76
2021/01/30 07:15:51;;;;;;;9.33;3.40;;;;;;;;;;5031574;28;20555;-76
2021/01/30 07:18:27;;;;;;;6.23;2.17;;;;;;;;;;5036065;28;20194;-76
2021/01/30 07:21:02;;;;;;;12.97;2.83;;;;;;;;;;5046231;28;20197;-76
2021/01/30 07:23:34;;;;;;;7.30;2.33;;;;;;;;;;5032859;28;20195;-77
2021/01/30 07:26:06;;;;;;;6.60;1.60;;;;;;;;;;5033180;28;20212;-77
2021/01/30 07:28:38;;;;;;;5.73;1.90;;;;;;;;;;5032125;28;20199;-76
2021/01/30 07:31:23;;;;;;;3.40;1.40;;;;;;;;;;5032103;28;20184;-75
2021/01/30 07:33:52;;;;;;;7.03;1.93;;;;;;;;;;5032991;28;20185;-76
2021/01/30 07:36:21;;;;;;;3.43;1.30;;;;;;;;;;5033054;28;20175;-75
2021/01/30 07:38:57;;;;;;;6.33;1.60;;;;;;;;;;5033160;28;20186;-75
2021/01/30 07:41:29;;;;;;;4.77;1.37;;;;;;;;;;5033451;28;20578;-75
2021/01/30 07:44:00;;;;;;;7.43;1.60;;;;;;;;;;5034867;28;20547;-75
2021/01/30 07:46:29;;;;;;;6.53;1.70;;;;;;;;;;5032404;28;20197;-75
2021/01/30 07:49:10;;;;;;;7.33;1.87;;;;;;;;;;5031494;28;20171;-76
2021/01/30 07:52:02;;;;;;;5.07;1.83;;;;;;;;;;5032985;28;20621;-76
2021/01/30 07:54:28;;;;;;;5.63;1.47;;;;;;;;;;5032675;28;20201;-75
2021/01/30 07:57:03;;;;;;;3.20;1.40;;;;;;;;;;5036317;28;20285;-76
2021/01/30 07:59:50;;;;;;;6.23;1.90;;;;;;;;;;5035614;28;20650;-75
2021/01/30 08:02:25;;;;;;;4.63;1.67;;;;;;;;;;5035366;28;20201;-76
2021/01/30 08:05:00;;;;;;;5.30;1.93;;;;;;;;;;5035695;28;20198;-76
2021/01/30 08:07:36;;;;;;;7.70;1.73;;;;;;;;;;5036568;28;20677;-76
2021/01/30 08:10:10;;;;;;;6.90;2.00;;;;;;;;;;5036800;28;20252;-76
2021/01/30 08:12:36;;;;;;;4.93;1.63;;;;;;;;;;5036725;28;20187;-75
2021/01/30 08:15:05;;;;;;;4.80;1.73;;;;;;;;;;5036876;28;20642;-76
2021/01/30 08:17:37;;;;;;;7.77;2.00;;;;;;;;;;5036659;28;20195;-75
2021/01/30 08:20:03;;;;;;;4.43;1.30;;;;;;;;;;5037029;28;20178;-75
2021/01/30 08:22:34;;;;;;;6.67;1.80;;;;;;;;;;5036105;28;20203;-75
2021/01/30 08:25:04;;;;;;;4.27;1.43;;;;;;;;;;5036895;28;20182;-75
2021/01/30 08:27:33;;;;;;;6.90;1.50;;;;;;;;;;5036060;28;20571;-76
2021/01/30 08:30:19;;;;;;;4.23;1.60;;;;;;;;;;5036282;28;20181;-75
2021/01/30 08:32:56;;;;;;;4.67;1.50;;;;;;;;;;5036338;28;20184;-76
2021/01/30 08:35:22;;;;;;;5.43;1.80;;;;;;;;;;5038947;28;20186;-75
2021/01/30 08:38:07;;;;;;;5.13;1.67;;;;;;;;;;5036276;28;20203;-76
2021/01/30 08:40:46;;;;;;;4.27;1.40;;;;;;;;;;5039083;28;20712;-75
2021/01/30 08:43:19;;;;;;;4.73;1.90;;;;;;;;;;5035587;28;20735;-75
2021/01/30 08:45:46;;;;;;;9.53;2.00;;;;;;;;;;5036806;28;20190;-75
2021/01/30 08:48:18;;;;;;;8.13;1.93;;;;;;;;;;5035096;28;20248;-76
2021/01/30 08:50:45;;;;;;;7.70;2.00;;;;;;;;;;5034428;28;20180;-76
2021/01/30 08:53:13;;;;;;;6.60;1.80;;;;;;;;;;5035233;28;20208;-74
2021/01/30 08:55:45;;;;;;;5.37;2.00;;;;;;;;;;5035525;28;20257;-75
2021/01/30 08:58:30;;;;;;;5.40;2.13;;;;;;;;;;5035481;28;20560;-76
2021/01/30 09:01:00;;;;;;;8.87;4.37;;;;;;;;;;5036104;28;20250;-76
2021/01/30 09:03:41;;;;;;;5.60;2.10;;;;;;;;;;5035876;28;20234;-76
2021/01/30 09:06:08;;;;;;;9.40;5.40;;;;;;;;;;5033492;28;20209;-76
2021/01/30 09:08:37;;;;;;;7.50;2.10;;;;;;;;;;5038030;28;20246;-76
2021/01/30 09:11:29;;;;;;;14.33;3.23;;;;;;;;;;5035947;28;20174;-76
2021/01/30 09:14:04;;;;;;;8.20;2.20;;;;;;;;;;5012611;28;20196;-76
2021/01/30 09:16:49;;;;;;;4.33;2.17;;;;;;;;;;5035602;28;20184;-76
2021/01/30 09:19:36;;;;;;;9.27;2.10;;;;;;;;;;5036500;28;20182;-75
2021/01/30 09:22:02;;;;;;;7.97;2.70;;;;;;;;;;5005805;28;20187;-76
2021/01/30 09:24:39;;;;;;;6.47;2.57;;;;;;;;;;5034562;28;20173;-76
2021/01/30 09:27:10;;;;;;;8.87;2.90;;;;;;;;;;5035734;28;20277;-76
2021/01/30 09:29:41;;;;;;;5.63;2.57;;;;;;;;;;5033969;28;20180;-76
2021/01/30 09:32:08;;;;;;;6.43;2.10;;;;;;;;;;5035281;28;20188;-76
2021/01/30 09:34:44;;;;;;;7.30;2.43;;;;;;;;;;5035447;28;20173;-76
2021/01/30 09:37:26;;;;;;;8.90;2.27;;;;;;;;;;5034107;28;20795;-76
2021/01/30 09:39:56;;;;;;;5.50;2.03;;;;;;;;;;5034055;28;20186;-76
2021/01/30 09:42:22;;;;;;;13.10;3.00;;;;;;;;;;5037634;28;20197;-76
2021/01/30 09:45:01;;;;;;;10.33;2.37;;;;;;;;;;5035539;28;20225;-75
2021/01/30 09:47:27;;;;;;;7.37;2.77;;;;;;;;;;5035200;28;20201;-75
2021/01/30 09:50:01;;;;;;;5.97;2.23;;;;;;;;;;5035310;28;20253;-76
2021/01/30 09:52:28;;;;;;;8.57;2.63;;;;;;;;;;5035020;28;20175;-77
2021/01/30 09:55:01;;;;;;;4.90;2.00;;;;;;;;;;5035286;28;20190;-76
2021/01/30 09:57:28;;;;;;;6.60;2.50;;;;;;;;;;5035339;28;20277;-76
2021/01/30 10:00:01;;;;;;;6.30;2.20;;;;;;;;;;5033720;28;20180;-76
2021/01/30 10:02:30;;;;;;;7.87;2.47;;;;;;;;;;5032926;28;20194;-77
2021/01/30 10:05:08;;;;;;;8.53;2.50;;;;;;;;;;5034880;28;20178;-77
2021/01/30 10:07:34;;;;;;;9.83;2.93;;;;;;;;;;5032225;28;20206;-76
2021/01/30 10:10:01;;;;;;;10.00;1.83;;;;;;;;;;5032311;28;20181;-77
2021/01/30 10:12:33;;;;;;;6.97;2.60;;;;;;;;;;5033808;28;20174;-78
2021/01/30 10:14:59;;;;;;;10.90;2.03;;;;;;;;;;5034393;28;20183;-77
2021/01/30 10:17:33;;;;;;;8.07;1.73;;;;;;;;;;5033090;28;20228;-77
2021/01/30 10:20:01;;;;;;;10.43;2.30;;;;;;;;;;5034015;28;20175;-77
2021/01/30 10:22:33;;;;;;;12.27;2.43;;;;;;;;;;5033945;28;20558;-77
2021/01/30 10:25:01;;;;;;;11.33;2.17;;;;;;;;;;5033187;28;20172;-76
2021/01/30 10:27:31;;;;;;;5.03;2.13;;;;;;;;;;5033894;28;20543;-77
2021/01/30 10:30:16;;;;;;;11.23;2.40;;;;;;;;;;5033293;28;20670;-77
2021/01/30 10:32:47;;;;;;;7.70;2.30;;;;;;;;;;5034297;28;20203;-77
2021/01/30 10:35:24;;;;;;;4.00;1.97;;;;;;;;;;5033141;28;20175;-76
2021/01/30 10:37:52;;;;;;;11.27;2.50;;;;;;;;;;5035559;28;20230;-76
2021/01/30 10:40:20;;;;;;;10.27;3.00;;;;;;;;;;5034541;28;20582;-77
2021/01/30 10:42:47;;;;;;;8.07;2.80;;;;;;;;;;5032906;28;20211;-76
2021/01/30 10:45:19;;;;;;;10.63;2.20;;;;;;;;;;5034434;28;20177;-78
2021/01/30 10:47:47;;;;;;;7.93;2.40;;;;;;;;;;5032024;28;20284;-78
2021/01/30 10:50:15;;;;;;;9.37;2.17;;;;;;;;;;5033480;28;20184;-78
2021/01/30 10:52:42;;;;;;;8.07;2.17;;;;;;;;;;5034544;28;20183;-78
2021/01/30 10:55:23;;;;;;;8.50;1.90;;;;;;;;;;5033347;28;20176;-79
2021/01/30 10:57:49;;;;;;;10.43;2.33;;;;;;;;;;5034797;28;20221;-78
2021/01/30 11:00:30;;;;;;;6.07;2.10;;;;;;;;;;5034363;28;20677;-78
2021/01/30 11:02:56;;;;;;;9.43;2.70;;;;;;;;;;5034014;28;20195;-78
2021/01/30 11:05:27;;;;;;;7.07;2.20;;;;;;;;;;5034407;28;20175;-78
2021/01/30 11:07:57;;;;;;;7.03;1.73;;;;;;;;;;5054340;23;20222;-78
2021/01/30 11:10:26;;;;;;;8.93;1.93;;;;;;;;;;5056149;28;20178;-79
2021/01/30 11:12:53;;;;;;;10.63;2.20;;;;;;;;;;5051023;28;20309;-79
2021/01/30 11:15:21;;;;;;;5.50;1.80;;;;;;;;;;5056776;28;20549;-78
2021/01/30 11:17:47;;;;;;;8.63;2.27;;;;;;;;;;5057048;28;20197;-78
2021/01/30 11:20:14;;;;;;;12.13;2.17;;;;;;;;;;5056530;28;20186;-79
2021/01/30 11:22:49;;;;;;;9.20;1.90;;;;;;;;;;5056838;28;20206;-79
2021/01/30 11:25:15;;;;;;;3.93;1.63;;;;;;;;;;5056611;28;20178;-78
2021/01/30 11:27:45;;;;;;;12.10;2.13;;;;;;;;;;5054228;28;20565;-76
2021/01/30 11:30:14;;;;;;;6.63;1.60;;;;;;;;;;5052037;28;20197;-76
2021/01/30 11:32:40;;;;;;;10.60;2.20;;;;;;;;;;5052797;28;20178;-76
2021/01/30 11:35:07;;;;;;;6.00;1.60;;;;;;;;;;5042097;28;20176;-76
2021/01/30 11:37:33;;;;;;;5.53;1.90;;;;;;;;;;5023239;28;20199;-76
2021/01/30 11:40:07;;;;;;;5.60;1.80;;;;;;;;;;5026733;28;20183;-76
2021/01/30 11:42:33;;;;;;;5.53;1.83;;;;;;;;;;5018769;28;20202;-75
2021/01/30 11:45:00;;;;;;;7.27;2.13;;;;;;;;;;5031485;28;20178;-76
2021/01/30 11:47:26;;;;;;;8.03;1.90;;;;;;;;;;5030754;28;20177;-76
2021/01/30 11:49:52;;;;;;;3.60;1.27;;;;;;;;;;5033424;28;20197;-76
2021/01/30 11:52:19;;;;;;;5.20;1.37;;;;;;;;;;5039383;28;20170;-77
2021/01/30 11:54:45;;;;;;;8.20;1.77;;;;;;;;;;5032931;28;20253;-77
2021/01/30 11:57:11;;;;;;;5.30;2.27;;;;;;;;;;5040546;28;20303;-76
2021/01/30 11:59:37;;;;;;;4.00;1.63;;;;;;;;;;5036869;28;20555;-76
2021/01/30 12:02:03;;;;;;;10.00;2.33;;;;;;;;;;5033558;28;20189;-76
2021/01/30 12:04:30;;;;;;;4.47;1.53;;;;;;;;;;5030406;28;20183;-76
2021/01/30 12:06:56;;;;;;;5.43;1.53;;;;;;;;;;5028259;28;20205;-76
2021/01/30 12:09:22;;;;;;;6.00;1.47;;;;;;;;;;5027492;28;20243;-77
2021/01/30 12:11:48;;;;;;;4.93;1.80;;;;;;;;;;5026360;28;20190;-76
2021/01/30 12:14:14;;;;;;;6.57;1.67;;;;;;;;;;5029198;28;20179;-76
2021/01/30 12:16:40;;;;;;;7.13;1.50;;;;;;;;;;5029315;28;20240;-76
2021/01/30 12:19:06;;;;;;;7.67;1.63;;;;;;;;;;5035823;28;20692;-76
2021/01/30 12:21:32;;;;;;;6.40;1.57;;;;;;;;;;5025630;28;20274;-77
2021/01/30 12:23:59;;;;;;;6.10;1.60;;;;;;;;;;5031051;28;20249;-77
2021/01/30 12:26:27;;;;;;;6.93;1.90;;;;;;;;;;5024032;28;20204;-77
2021/01/30 12:28:53;;;;;;;4.83;1.80;;;;;;;;;;5028756;28;20195;-76
2021/01/30 12:31:19;;;;;;;4.23;2.07;;;;;;;;;;5027682;28;20179;-76
2021/01/30 12:33:45;;;;;;;4.60;1.53;;;;;;;;;;5019958;28;20183;-76
2021/01/30 12:36:12;;;;;;;4.70;1.67;;;;;;;;;;5024228;28;20195;-76
2021/01/30 12:38:38;;;;;;;5.53;1.30;;;;;;;;;;5035728;28;20203;-76
2021/01/30 12:41:06;;;;;;;6.43;2.10;;;;;;;;;;5030866;28;20190;-76
2021/01/30 12:43:32;;;;;;;5.47;2.43;;;;;;;;;;5026576;28;20202;-77
2021/01/30 12:45:58;;;;;;;10.60;2.80;;;;;;;;;;5030684;28;20192;-76
2021/01/30 12:48:24;;;;;;;7.00;2.10;;;;;;;;;;5039805;28;20199;-76
2021/01/30 12:50:51;;;;;;;5.67;1.93;;;;;;;;;;5032864;28;20563;-76
2021/01/30 12:53:17;;;;;;;4.60;2.30;;;;;;;;;;5031714;28;20193;-76
2021/01/30 12:55:43;;;;;;;4.70;1.73;;;;;;;;;;5037865;28;20180;-77
2021/01/30 12:58:11;;;;;;;6.60;2.73;;;;;;;;;;5039026;28;20203;-76
2021/01/30 13:00:38;;;;;;;5.27;2.90;;;;;;;;;;5039148;28;20649;-76
2021/01/30 13:03:04;;;;;;;3.97;1.80;;;;;;;;;;5030724;28;20206;-76
2021/01/30 13:05:30;;;;;;;6.43;2.20;;;;;;;;;;5042847;28;20179;-76
2021/01/30 13:07:57;;;;;;;5.70;2.27;;;;;;;;;;5032080;28;20212;-76
2021/01/30 13:10:23;;;;;;;3.17;1.60;;;;;;;;;;5037390;28;20198;-76
2021/01/30 13:12:49;;;;;;;3.10;1.63;;;;;;;;;;5031499;28;20725;-76
2021/01/30 13:15:16;;;;;;;6.77;2.33;;;;;;;;;;5033254;28;20185;-76
2021/01/30 13:17:43;;;;;;;7.53;2.70;;;;;;;;;;5027099;28;20218;-76
2021/01/30 13:20:09;;;;;;;3.50;1.30;;;;;;;;;;5035500;28;20234;-76
2021/01/30 13:22:36;;;;;;;6.40;1.90;;;;;;;;;;5027937;28;20211;-75
2021/01/30 13:25:06;;;;;;;3.17;1.93;;;;;;;;;;5030422;28;20176;-76
2021/01/30 13:27:32;;;;;;;3.93;1.23;;;;;;;;;;5044693;28;20215;-76
2021/01/30 13:29:59;;;;;;;2.77;1.30;;;;;;;;;;5038555;28;20584;-76
2021/01/30 13:32:25;;;;;;;3.20;2.20;;;;;;;;;;5030302;28;20635;-76
2021/01/30 13:34:51;;;;;;;6.13;2.40;;;;;;;;;;5040240;28;20182;-76
2021/01/30 13:37:18;;;;;;;4.87;2.23;;;;;;;;;;5024474;28;20190;-77
2021/01/30 13:39:44;;;;;;;6.37;2.33;;;;;;;;;;5031834;28;20175;-76
2021/01/30 13:42:10;;;;;;;5.47;1.90;;;;;;;;;;5026095;28;20248;-76
2021/01/30 13:44:37;;;;;;;4.53;1.73;;;;;;;;;;5037173;28;20237;-76
2021/01/30 13:47:04;;;;;;;6.93;2.57;;;;;;;;;;5027401;28;20180;-76
2021/01/30 13:49:30;;;;;;;4.50;2.30;;;;;;;;;;5022701;28;20269;-76
2021/01/30 13:51:56;;;;;;;5.30;2.47;;;;;;;;;;5028452;28;20213;-75
2021/01/30 13:54:22;;;;;;;7.57;3.23;;;;;;;;;;5031145;28;20200;-76
2021/01/30 13:56:48;;;;;;;6.13;2.80;;;;;;;;;;5026099;28;20763;-76
2021/01/30 13:59:14;;;;;;;3.10;2.00;;;;;;;;;;5027734;28;20250;-76
2021/01/30 14:01:41;;;;;;;6.27;2.10;;;;;;;;;;5027527;28;20198;-76
2021/01/30 14:04:08;;;;;;;3.23;2.40;;;;;;;;;;5032256;28;20582;-76
2021/01/30 14:06:35;;;;;;;8.07;3.57;;;;;;;;;;5033657;28;20187;-76
2021/01/30 14:09:01;;;;;;;5.43;2.20;;;;;;;;;;5038316;28;20225;-76
2021/01/30 14:11:27;;;;;;;7.37;3.10;;;;;;;;;;5024337;28;20187;-77
2021/01/30 14:13:53;;;;;;;6.20;3.70;;;;;;;;;;5027779;28;20553;-76
2021/01/30 14:16:20;;;;;;;5.10;1.83;;;;;;;;;;5016584;28;20190;-77
2021/01/30 14:18:46;;;;;;;3.90;1.73;;;;;;;;;;5017464;28;20203;-76
2021/01/30 14:21:16;;;;;;;5.67;2.43;;;;;;;;;;5027175;28;20262;-76
2021/01/30 14:23:42;;;;;;;3.70;2.17;;;;;;;;;;5027642;28;20207;-76
2021/01/30 14:26:08;;;;;;;3.60;1.77;;;;;;;;;;5036285;28;20174;-76
2021/01/30 14:28:34;;;;;;;2.77;1.50;;;;;;;;;;5034692;28;20293;-76
2021/01/30 14:31:01;;;;;;;3.07;1.60;;;;;;;;;;5032840;28;20172;-76
2021/01/30 14:33:27;;;;;;;2.63;1.97;;;;;;;;;;5028664;28;20592;-76
2021/01/30 14:35:53;;;;;;;5.67;2.20;;;;;;;;;;5031679;28;20176;-76
2021/01/30 14:38:19;;;;;;;2.50;1.50;;;;;;;;;;5033252;28;20234;-76
2021/01/30 14:40:46;;;;;;;2.13;0.97;;;;;;;;;;5036966;28;20213;-76
2021/01/30 14:43:12;;;;;;;2.70;1.53;;;;;;;;;;5036743;28;20660;-75
2021/01/30 14:45:39;;;;;;;4.67;2.00;;;;;;;;;;5054187;28;20545;-77
2021/01/30 14:48:06;;;;;;;3.53;1.50;;;;;;;;;;5053897;28;20234;-77
2021/01/30 14:50:32;;;;;;;2.40;1.13;;;;;;;;;;5049040;28;20284;-76
2021/01/30 14:52:58;;;;;;;3.33;1.87;;;;;;;;;;5026189;28;20591;-76
2021/01/30 14:55:24;;;;;;;1.30;0.97;;;;;;;;;;5033674;28;20224;-76